Time;durP1;ratioP1;P1;durP2;ratioP2;P2;SDS_P1;SDS_P2;PMS_P1;PMS_P2;Temp;Humidity;BMP_temperature;BMP_pressure;BME280_temperature;BME280_humidity;BME280_pressure;Samples;Min_cycle;Max_cycle;Signal;HPM_P1;HPM_P2
2023/04/16 00:01:39;;;;;;;25.35;8.52;;;;;;;-144.57;100.00;62443.72;5034090;28;20103;-65
2023/04/16 00:04:05;;;;;;;24.42;8.25;;;;;;;-144.57;100.00;62443.72;5051307;28;20529;-67
2023/04/16 00:06:31;;;;;;;22.40;8.98;;;;;;;-144.57;100.00;62443.72;5049348;28;20136;-67
2023/04/16 00:08:57;;;;;;;24.73;8.00;;;;;;;-144.57;100.00;62443.72;5050270;28;20058;-67
2023/04/16 00:11:22;;;;;;;20.65;7.45;;;;;;;-144.57;100.00;62443.72;5033706;28;20044;-66
2023/04/16 00:13:48;;;;;;;22.88;7.93;;;;;;;-144.57;100.00;62443.72;5050106;28;20095;-68
2023/04/16 00:16:14;;;;;;;22.35;7.68;;;;;;;-144.57;100.00;62443.72;5050961;28;20041;-68
2023/04/16 00:18:41;;;;;;;18.48;6.85;;;;;;;-144.57;100.00;62443.72;5051583;28;20045;-68
2023/04/16 00:21:06;;;;;;;14.95;6.85;;;;;;;-144.57;100.00;62443.72;5033637;28;20135;-68
2023/04/16 00:23:32;;;;;;;16.08;7.25;;;;;;;-144.57;100.00;62443.72;5066118;28;20132;-69
2023/04/16 00:26:01;;;;;;;14.90;6.65;;;;;;;-144.57;100.00;62443.72;5033277;28;20049;-67
2023/04/16 00:28:27;;;;;;;21.80;7.55;;;;;;;-144.57;100.00;62443.72;5051419;28;20395;-67
2023/04/16 00:30:53;;;;;;;24.65;7.65;;;;;;;-144.57;100.00;62443.72;5050391;28;20075;-69
2023/04/16 00:33:19;;;;;;;19.17;8.15;;;;;;;-144.57;100.00;62443.72;5050078;28;20045;-69
2023/04/16 00:35:46;;;;;;;19.10;8.20;;;;;;;-144.57;100.00;62443.72;5050368;28;20140;-67
2023/04/16 00:38:12;;;;;;;22.48;7.00;;;;;;;-144.57;100.00;62443.72;5049982;28;20041;-69
2023/04/16 00:40:38;;;;;;;18.23;6.55;;;;;;;-144.57;100.00;62443.72;5033154;28;20529;-66
2023/04/16 00:43:04;;;;;;;16.17;6.47;;;;;;;-144.57;100.00;62443.72;5052323;28;20044;-67
2023/04/16 00:45:30;;;;;;;15.75;6.53;;;;;;;-144.57;100.00;62443.72;5060419;28;20052;-68
2023/04/16 00:47:57;;;;;;;17.52;6.38;;;;;;;-144.57;100.00;62443.72;5059357;28;20123;-69
2023/04/16 00:50:23;;;;;;;15.15;6.00;;;;;;;-144.57;100.00;62443.72;5041961;28;20045;-68
2023/04/16 00:52:49;;;;;;;18.60;6.53;;;;;;;-144.57;100.00;62443.72;5060291;28;20051;-69
2023/04/16 00:55:17;;;;;;;16.88;7.40;;;;;;;-144.57;100.00;62443.72;5059081;28;20037;-70
2023/04/16 00:57:44;;;;;;;27.73;7.63;;;;;;;-144.57;100.00;62443.72;5059980;28;20036;-68
2023/04/16 01:00:11;;;;;;;20.23;8.00;;;;;;;-144.57;100.00;62443.72;5053715;28;20044;-67
2023/04/16 01:02:37;;;;;;;26.95;8.15;;;;;;;-144.57;100.00;62443.72;5067740;28;20036;-69
2023/04/16 01:05:03;;;;;;;24.38;7.93;;;;;;;-144.57;100.00;62443.72;5069468;28;20064;-68
2023/04/16 01:07:30;;;;;;;26.05;8.60;;;;;;;-144.57;100.00;62443.72;5071143;28;20080;-69
2023/04/16 01:09:56;;;;;;;26.60;8.55;;;;;;;-144.57;100.00;62443.72;5071105;28;20036;-67
2023/04/16 01:12:22;;;;;;;30.80;9.82;;;;;;;-144.57;100.00;62443.72;5071118;28;20422;-67
2023/04/16 01:14:48;;;;;;;33.53;10.10;;;;;;;-144.57;100.00;62443.72;5036464;28;20135;-66
2023/04/16 01:17:13;;;;;;;23.88;10.40;;;;;;;-144.57;100.00;62443.72;5073658;28;20119;-69
2023/04/16 01:19:39;;;;;;;27.70;9.10;;;;;;;-144.57;100.00;62443.72;5074006;28;20048;-66
2023/04/16 01:22:05;;;;;;;17.65;7.53;;;;;;;-144.57;100.00;62443.72;5062792;28;20041;-67
2023/04/16 01:24:31;;;;;;;15.85;7.00;;;;;;;-144.57;100.00;62443.72;5062604;28;20134;-67
2023/04/16 01:26:58;;;;;;;22.05;8.07;;;;;;;-144.57;100.00;62443.72;5064033;28;20064;-69
2023/04/16 01:29:25;;;;;;;28.10;7.88;;;;;;;-144.57;100.00;62443.72;5034920;28;20040;-68
2023/04/16 01:31:51;;;;;;;28.67;9.40;;;;;;;-144.57;100.00;62443.72;5062283;28;20044;-67
2023/04/16 01:34:30;;;;;;;30.33;9.55;;;;;;;-144.57;100.00;62443.72;5048897;28;20520;-68
2023/04/16 01:36:57;;;;;;;37.72;10.32;;;;;;;-144.57;100.00;62443.72;5072234;28;20143;-68
2023/04/16 01:39:22;;;;;;;38.28;9.93;;;;;;;-144.57;100.00;62443.72;5074082;28;20093;-68
2023/04/16 01:41:48;;;;;;;42.38;11.90;;;;;;;-144.57;100.00;62443.72;5039489;28;20086;-69
2023/04/16 01:44:14;;;;;;;42.53;12.23;;;;;;;-144.57;100.00;62443.72;5073035;28;20482;-67
2023/04/16 01:46:43;;;;;;;31.25;10.45;;;;;;;-144.57;100.00;62443.72;5072764;28;20063;-67
2023/04/16 01:49:08;;;;;;;31.50;9.73;;;;;;;-144.57;100.00;62443.72;5074326;28;20079;-67
2023/04/16 01:51:34;;;;;;;27.48;9.52;;;;;;;-144.57;100.00;62443.72;5074138;28;20501;-68
2023/04/16 01:54:00;;;;;;;26.48;8.95;;;;;;;-144.57;100.00;62443.72;5056038;28;20086;-68
2023/04/16 01:56:25;;;;;;;23.23;8.93;;;;;;;-144.57;100.00;62443.72;5056281;28;20032;-67
2023/04/16 01:58:52;;;;;;;31.52;10.00;;;;;;;-144.57;100.00;62443.72;5072354;28;20041;-69
2023/04/16 02:01:18;;;;;;;37.30;10.35;;;;;;;-144.57;100.00;62443.72;5055976;28;20060;-68
2023/04/16 02:03:46;;;;;;;25.60;8.77;;;;;;;-144.57;100.00;62443.72;5072596;28;20045;-69
2023/04/16 02:06:12;;;;;;;26.73;8.52;;;;;;;-144.57;100.00;62443.72;5055724;28;20546;-69
2023/04/16 02:08:37;;;;;;;19.77;7.97;;;;;;;-144.57;100.00;62443.72;5072855;28;20143;-68
2023/04/16 02:11:03;;;;;;;20.13;8.05;;;;;;;-144.57;100.00;62443.72;5072356;28;20072;-69
2023/04/16 02:13:29;;;;;;;21.65;8.07;;;;;;;-144.57;100.00;62443.72;5073852;28;20044;-67
2023/04/16 02:15:55;;;;;;;20.73;7.85;;;;;;;-144.57;100.00;62443.72;5072891;28;20098;-67
2023/04/16 02:18:59;;;;;;;14.80;6.68;;;;;;;-144.57;100.00;62443.72;5073006;28;20409;-68
2023/04/16 02:21:28;;;;;;;12.88;6.75;;;;;;;-144.57;100.00;62443.72;5055313;28;20529;-68
2023/04/16 02:23:54;;;;;;;12.82;7.40;;;;;;;-144.57;100.00;62443.72;5072607;28;20043;-69
2023/04/16 02:26:25;;;;;;;20.13;7.03;;;;;;;-144.57;100.00;62443.72;5070820;28;20432;-67
2023/04/16 02:28:52;;;;;;;15.70;7.35;;;;;;;-144.57;100.00;62443.72;5072055;28;20426;-69
2023/04/16 02:31:23;;;;;;;13.60;6.68;;;;;;;-144.57;100.00;62443.72;5072025;28;20048;-68
2023/04/16 02:33:49;;;;;;;21.55;7.25;;;;;;;-144.57;100.00;62443.72;5072592;28;20044;-69
2023/04/16 02:36:15;;;;;;;23.20;8.50;;;;;;;-144.57;100.00;62443.72;5073331;28;20048;-68
2023/04/16 02:38:41;;;;;;;16.80;7.13;;;;;;;-144.57;100.00;62443.72;5072659;28;20061;-68
2023/04/16 02:41:07;;;;;;;16.52;7.82;;;;;;;-144.57;100.00;62443.72;5054889;28;20040;-68
2023/04/16 02:43:33;;;;;;;12.82;7.65;;;;;;;-144.57;100.00;62443.72;5073351;28;20043;-69
2023/04/16 02:46:00;;;;;;;19.67;7.78;;;;;;;-144.57;100.00;62443.72;5072116;28;20088;-69
2023/04/16 02:48:26;;;;;;;16.52;7.80;;;;;;;-144.57;100.00;62443.72;5073091;28;20078;-68
2023/04/16 02:50:52;;;;;;;16.10;6.93;;;;;;;-144.57;100.00;62443.72;5071465;28;20047;-68
2023/04/16 02:53:18;;;;;;;16.63;7.68;;;;;;;-144.57;100.00;62443.72;5038693;28;20040;-68
2023/04/16 02:55:54;;;;;;;18.30;7.38;;;;;;;-144.57;100.00;62443.72;5071435;28;20059;-67
2023/04/16 02:58:21;;;;;;;18.63;6.97;;;;;;;-144.57;100.00;62443.72;5071698;28;20053;-67
2023/04/16 03:00:47;;;;;;;20.77;7.50;;;;;;;-144.57;100.00;62443.72;5054847;28;20110;-68
2023/04/16 03:03:13;;;;;;;19.00;7.65;;;;;;;-144.57;100.00;62443.72;5055234;28;20475;-68
2023/04/16 03:05:39;;;;;;;15.93;6.80;;;;;;;-144.57;100.00;62443.72;5054666;28;20090;-69
2023/04/16 03:08:05;;;;;;;28.35;7.85;;;;;;;-144.57;100.00;62443.72;5071683;28;20048;-69
2023/04/16 03:10:31;;;;;;;24.67;7.63;;;;;;;-144.57;100.00;62443.72;5037899;28;20036;-69
2023/04/16 03:12:57;;;;;;;22.95;7.63;;;;;;;-144.57;100.00;62443.72;5071589;28;20490;-68
2023/04/16 03:15:24;;;;;;;16.00;7.10;;;;;;;-144.57;100.00;62443.72;5072634;28;20036;-68
2023/04/16 03:17:50;;;;;;;17.75;7.30;;;;;;;-144.57;100.00;62443.72;5071146;28;20040;-68
2023/04/16 03:20:16;;;;;;;12.25;6.72;;;;;;;-144.57;100.00;62443.72;5054201;28;20090;-67
2023/04/16 03:22:42;;;;;;;19.15;7.45;;;;;;;-144.57;100.00;62443.72;5071270;28;20056;-70
2023/04/16 03:25:08;;;;;;;16.33;7.57;;;;;;;-144.57;100.00;62443.72;5037638;28;20544;-68
2023/04/16 03:27:34;;;;;;;17.10;6.85;;;;;;;-144.57;100.00;62443.72;5071033;28;20187;-67
2023/04/16 03:30:00;;;;;;;18.33;6.57;;;;;;;-144.57;100.00;62443.72;5071081;28;20147;-69
2023/04/16 03:32:29;;;;;;;11.90;6.13;;;;;;;-144.57;100.00;62443.72;5038790;28;20068;-68
2023/04/16 03:34:56;;;;;;;13.18;7.55;;;;;;;-144.57;100.00;62443.72;5054090;28;20044;-69
2023/04/16 03:37:21;;;;;;;17.08;6.88;;;;;;;-144.57;100.00;62443.72;5072289;28;20049;-68
2023/04/16 03:39:49;;;;;;;20.35;7.20;;;;;;;-144.57;100.00;62443.72;5070648;28;20166;-66
2023/04/16 03:42:15;;;;;;;15.57;6.85;;;;;;;-144.57;100.00;62443.72;5070600;28;20139;-69
2023/04/16 03:44:40;;;;;;;19.67;8.13;;;;;;;-144.57;100.00;62443.72;5053845;28;20048;-68
2023/04/16 03:47:07;;;;;;;18.02;7.18;;;;;;;-144.57;100.00;62443.72;5054320;28;20052;-68
2023/04/16 03:49:34;;;;;;;27.73;7.63;;;;;;;-144.57;100.00;62443.72;5070519;28;20044;-68
2023/04/16 03:51:59;;;;;;;16.90;7.40;;;;;;;-144.57;100.00;62443.72;5070700;28;20048;-68
2023/04/16 03:54:25;;;;;;;17.08;7.60;;;;;;;-144.57;100.00;62443.72;5071055;28;20119;-69
2023/04/16 03:57:01;;;;;;;19.80;7.75;;;;;;;-144.57;100.00;62443.72;5070609;28;20198;-68
2023/04/16 03:59:27;;;;;;;19.90;7.97;;;;;;;-144.57;100.00;62443.72;5037389;28;20554;-70
2023/04/16 04:01:53;;;;;;;19.23;7.90;;;;;;;-144.57;100.00;62443.72;5053708;28;20044;-67
2023/04/16 04:04:19;;;;;;;16.95;7.78;;;;;;;-144.57;100.00;62443.72;5070465;28;20086;-67
2023/04/16 04:06:45;;;;;;;13.38;6.93;;;;;;;-144.57;100.00;62443.72;5070081;28;20129;-69
2023/04/16 04:09:12;;;;;;;14.73;7.53;;;;;;;-144.57;100.00;62443.72;5070560;28;20119;-69
2023/04/16 04:11:38;;;;;;;12.18;6.88;;;;;;;-144.57;100.00;62443.72;5070267;28;20093;-68
2023/04/16 04:14:04;;;;;;;17.45;7.55;;;;;;;-144.57;100.00;62443.72;5071464;28;20119;-68
2023/04/16 04:16:30;;;;;;;15.15;7.88;;;;;;;-144.57;100.00;62443.72;5053649;28;20040;-68
2023/04/16 04:18:59;;;;;;;17.67;7.43;;;;;;;-144.57;100.00;62443.72;5070333;28;20087;-69
2023/04/16 04:21:27;;;;;;;16.70;7.78;;;;;;;-144.57;100.00;62443.72;5071233;28;20045;-68
2023/04/16 04:23:53;;;;;;;14.73;7.25;;;;;;;-144.57;100.00;62443.72;5070391;28;20040;-68
2023/04/16 04:26:19;;;;;;;19.90;8.40;;;;;;;-144.57;100.00;62443.72;5069915;28;20116;-66
2023/04/16 04:28:45;;;;;;;19.08;7.57;;;;;;;-144.57;100.00;62443.72;5020396;28;20047;-69
2023/04/16 04:31:12;;;;;;;15.32;7.32;;;;;;;-144.57;100.00;62443.72;5070124;28;20066;-68
2023/04/16 04:33:38;;;;;;;20.73;8.95;;;;;;;-144.57;100.00;62443.72;5053251;28;20078;-69
2023/04/16 04:36:05;;;;;;;16.00;7.57;;;;;;;-144.57;100.00;62443.72;5053309;28;20094;-70
2023/04/16 04:38:33;;;;;;;15.38;7.53;;;;;;;-144.57;100.00;62443.72;5037355;28;20048;-67
2023/04/16 04:40:58;;;;;;;16.83;6.68;;;;;;;-144.57;100.00;62443.72;5052997;28;20039;-68
2023/04/16 04:43:26;;;;;;;9.60;6.72;;;;;;;-144.57;100.00;62443.72;5037074;28;20506;-68
2023/04/16 04:45:52;;;;;;;16.23;7.45;;;;;;;-144.57;100.00;62443.72;5069889;28;20124;-68
2023/04/16 04:48:18;;;;;;;14.55;6.28;;;;;;;-144.57;100.00;62443.72;5040420;28;20033;-69
2023/04/16 04:50:45;;;;;;;12.02;6.60;;;;;;;-144.57;100.00;62443.72;5069938;28;20052;-68
2023/04/16 04:53:13;;;;;;;12.48;6.45;;;;;;;-144.57;100.00;62443.72;5056953;28;20054;-69
2023/04/16 04:55:39;;;;;;;10.77;5.97;;;;;;;-144.57;100.00;62443.72;5057537;28;20166;-67
2023/04/16 04:58:06;;;;;;;16.00;6.07;;;;;;;-144.57;100.00;62443.72;5073750;28;20493;-68
2023/04/16 05:00:32;;;;;;;18.08;7.30;;;;;;;-144.57;100.00;62443.72;5056715;28;20447;-67
2023/04/16 05:03:01;;;;;;;14.30;6.18;;;;;;;-144.57;100.00;62443.72;5035263;28;20068;-68
2023/04/16 05:05:27;;;;;;;14.77;6.32;;;;;;;-144.57;100.00;62443.72;5053445;28;20056;-69
2023/04/16 05:07:53;;;;;;;14.25;6.30;;;;;;;-144.57;100.00;62443.72;5059233;28;20127;-67
2023/04/16 05:10:19;;;;;;;10.10;5.57;;;;;;;-144.57;100.00;62443.72;5073654;28;20524;-69
2023/04/16 05:12:47;;;;;;;11.18;5.85;;;;;;;-144.57;100.00;62443.72;5071921;28;20045;-68
2023/04/16 05:15:45;;;;;;;15.30;5.57;;;;;;;-144.57;100.00;62443.72;5074527;28;20044;-67
2023/04/16 05:18:19;;;;;;;14.95;6.78;;;;;;;-144.57;100.00;62443.72;5039047;28;20147;-67
2023/04/16 05:20:44;;;;;;;14.75;6.32;;;;;;;-144.57;100.00;62443.72;5071466;28;20124;-68
2023/04/16 05:23:10;;;;;;;12.70;5.50;;;;;;;-144.57;100.00;62443.72;5073332;28;20072;-69
2023/04/16 05:25:36;;;;;;;12.32;6.07;;;;;;;-144.57;100.00;62443.72;5072537;28;20072;-68
2023/04/16 05:28:02;;;;;;;18.42;6.70;;;;;;;-144.57;100.00;62443.72;5039845;28;20048;-67
2023/04/16 05:30:27;;;;;;;13.75;5.53;;;;;;;-144.57;100.00;62443.72;5023157;28;20036;-67
2023/04/16 05:32:53;;;;;;;14.07;5.50;;;;;;;-144.57;100.00;62443.72;5071436;28;20492;-68
2023/04/16 05:35:19;;;;;;;13.25;5.70;;;;;;;-144.57;100.00;62443.72;5071964;28;20450;-70
2023/04/16 05:37:45;;;;;;;15.60;6.40;;;;;;;-144.57;100.00;62443.72;5074680;28;20464;-66
2023/04/16 05:40:12;;;;;;;11.65;7.13;;;;;;;-144.57;100.00;62443.72;5057919;28;20067;-66
2023/04/16 05:42:38;;;;;;;14.52;6.20;;;;;;;-144.57;100.00;62443.72;5071418;28;20044;-69
2023/04/16 05:45:04;;;;;;;15.07;7.25;;;;;;;-144.57;100.00;62443.72;5061190;28;20091;-65
2023/04/16 05:47:30;;;;;;;13.98;7.30;;;;;;;-144.57;100.00;62443.72;5053784;28;20053;-67
2023/04/16 05:49:56;;;;;;;10.95;6.30;;;;;;;-144.57;100.00;62443.72;5036054;28;20114;-68
2023/04/16 05:52:22;;;;;;;15.85;6.07;;;;;;;-144.57;100.00;62443.72;5019799;28;20563;-68
2023/04/16 05:54:48;;;;;;;13.18;5.88;;;;;;;-144.57;100.00;62443.72;5035968;28;20045;-67
2023/04/16 05:57:13;;;;;;;14.23;5.75;;;;;;;-144.57;100.00;62443.72;5054333;28;20087;-67
2023/04/16 05:59:39;;;;;;;13.90;5.40;;;;;;;-144.57;100.00;62443.72;5035569;28;20037;-67
2023/04/16 06:02:05;;;;;;;14.70;6.38;;;;;;;-144.57;100.00;62443.72;5051845;28;20414;-68
2023/04/16 06:04:31;;;;;;;12.27;5.80;;;;;;;-144.57;100.00;62443.72;5036218;28;20045;-69
2023/04/16 06:06:57;;;;;;;15.38;6.03;;;;;;;-144.57;100.00;62443.72;5052593;28;20060;-69
2023/04/16 06:09:23;;;;;;;15.15;6.13;;;;;;;-144.57;100.00;62443.72;5052250;28;20045;-68
2023/04/16 06:11:49;;;;;;;11.60;6.05;;;;;;;-144.57;100.00;62443.72;5052231;28;20137;-70
2023/04/16 06:14:15;;;;;;;9.15;5.57;;;;;;;-144.57;100.00;62443.72;5021938;28;20103;-69
2023/04/16 06:16:40;;;;;;;9.20;5.68;;;;;;;-144.57;100.00;62443.72;5070009;28;20051;-69
2023/04/16 06:19:07;;;;;;;11.25;5.38;;;;;;;-144.57;100.00;62443.72;5073477;28;20616;-78
2023/04/16 06:21:33;;;;;;;13.07;5.70;;;;;;;-144.57;100.00;62443.72;5053177;28;20048;-72
2023/04/16 06:23:59;;;;;;;12.77;5.50;;;;;;;-144.57;100.00;62443.72;5061245;28;20040;-74
2023/04/16 06:26:25;;;;;;;10.00;5.47;;;;;;;-144.57;100.00;62443.72;5044989;28;20453;-73
2023/04/16 06:28:51;;;;;;;15.63;5.72;;;;;;;-144.57;100.00;62443.72;5061137;28;20041;-75
2023/04/16 06:31:17;;;;;;;8.63;4.97;;;;;;;-144.57;100.00;62443.72;5061027;28;20139;-73
2023/04/16 06:33:42;;;;;;;11.30;5.38;;;;;;;-144.57;100.00;62443.72;5045704;28;20056;-72
2023/04/16 06:36:08;;;;;;;8.55;4.75;;;;;;;-144.57;100.00;62443.72;5032355;28;20053;-71
2023/04/16 06:38:35;;;;;;;12.90;4.97;;;;;;;-144.57;100.00;62443.72;5051976;28;20132;-72
2023/04/16 06:41:00;;;;;;;13.32;4.55;;;;;;;-144.57;100.00;62443.72;5059306;28;20075;-71
2023/04/16 06:43:26;;;;;;;9.02;4.40;;;;;;;-144.57;100.00;62443.72;5038459;28;20060;-74
2023/04/16 06:45:53;;;;;;;12.35;5.22;;;;;;;-144.57;100.00;62443.72;5054968;28;20052;-70
2023/04/16 06:48:19;;;;;;;11.80;5.55;;;;;;;-144.57;100.00;62443.72;5072885;28;20037;-66
2023/04/16 06:50:45;;;;;;;8.32;4.97;;;;;;;-144.57;100.00;62443.72;5054732;28;20072;-71
2023/04/16 06:53:11;;;;;;;8.48;4.55;;;;;;;-144.57;100.00;62443.72;5071461;28;20052;-69
2023/04/16 06:55:36;;;;;;;15.75;5.07;;;;;;;-144.57;100.00;62443.72;5071608;28;20047;-73
2023/04/16 06:58:02;;;;;;;13.38;5.43;;;;;;;-144.57;100.00;62443.72;5071676;28;20056;-71
2023/04/16 07:00:28;;;;;;;10.93;4.47;;;;;;;-144.57;100.00;62443.72;5071307;28;20036;-70
2023/04/16 07:02:54;;;;;;;9.15;4.65;;;;;;;-144.57;100.00;62443.72;5021777;28;20040;-70
2023/04/16 07:05:20;;;;;;;9.40;4.82;;;;;;;-144.57;100.00;62443.72;5071408;28;20063;-69
2023/04/16 07:07:45;;;;;;;10.35;4.75;;;;;;;-144.57;100.00;62443.72;5071562;28;20036;-71
2023/04/16 07:10:11;;;;;;;7.05;4.40;;;;;;;-144.57;100.00;62443.72;5071091;28;20076;-74
2023/04/16 07:12:37;;;;;;;10.80;5.05;;;;;;;-144.57;100.00;62443.72;5070396;28;20068;-67
2023/04/16 07:15:05;;;;;;;11.63;4.95;;;;;;;-144.57;100.00;62443.72;5070776;28;20071;-70
2023/04/16 07:17:30;;;;;;;9.23;4.88;;;;;;;-144.57;100.00;62443.72;5072819;28;20048;-72
2023/04/16 07:19:56;;;;;;;11.25;4.60;;;;;;;-144.57;100.00;62443.72;5071051;28;20032;-69
2023/04/16 07:22:22;;;;;;;9.32;4.40;;;;;;;-144.57;100.00;62443.72;5038090;28;20037;-73
2023/04/16 07:24:48;;;;;;;7.57;4.00;;;;;;;-144.57;100.00;62443.72;5068806;28;20049;-67
2023/04/16 07:27:13;;;;;;;9.43;5.60;;;;;;;-144.57;100.00;62443.72;5071186;28;20324;-66
2023/04/16 07:29:40;;;;;;;8.40;4.97;;;;;;;-144.57;100.00;62443.72;5052302;28;20471;-67
2023/04/16 07:32:06;;;;;;;16.17;8.77;;;;;;;-144.57;100.00;62443.72;5069462;28;20045;-66
2023/04/16 07:34:32;;;;;;;9.70;5.18;;;;;;;-144.57;100.00;62443.72;5067526;28;20040;-66
2023/04/16 07:36:58;;;;;;;12.82;5.05;;;;;;;-144.57;100.00;62443.72;5069934;28;20262;-65
2023/04/16 07:39:24;;;;;;;10.75;4.60;;;;;;;-144.57;100.00;62443.72;5070902;28;20090;-66
2023/04/16 07:41:49;;;;;;;13.32;5.35;;;;;;;-144.57;100.00;62443.72;5070526;28;20055;-65
2023/04/16 07:44:15;;;;;;;10.73;4.88;;;;;;;-144.57;100.00;62443.72;5053907;28;20048;-66
2023/04/16 07:46:41;;;;;;;12.10;5.10;;;;;;;-144.57;100.00;62443.72;5071055;28;20080;-66
2023/04/16 07:49:07;;;;;;;7.30;3.88;;;;;;;-144.57;100.00;62443.72;5053348;28;20040;-66
2023/04/16 07:51:33;;;;;;;11.88;4.55;;;;;;;-144.57;100.00;62443.72;5071998;28;20179;-66
2023/04/16 07:53:59;;;;;;;11.10;6.25;;;;;;;-144.57;100.00;62443.72;5071924;28;20501;-66
2023/04/16 07:56:25;;;;;;;15.40;5.40;;;;;;;-144.57;100.00;62443.72;5070362;28;20182;-65
2023/04/16 07:58:50;;;;;;;12.73;6.00;;;;;;;-144.57;100.00;62443.72;5070625;28;20047;-68
2023/04/16 08:01:16;;;;;;;11.57;4.88;;;;;;;-144.57;100.00;62443.72;5071768;28;20066;-66
2023/04/16 08:03:42;;;;;;;9.43;5.15;;;;;;;-144.57;100.00;62443.72;5071285;28;20045;-68
2023/04/16 08:06:08;;;;;;;15.32;5.30;;;;;;;-144.57;100.00;62443.72;5071194;28;20063;-67
2023/04/16 08:08:33;;;;;;;15.82;5.70;;;;;;;-144.57;100.00;62443.72;5071393;28;20037;-66
2023/04/16 08:10:59;;;;;;;11.90;5.50;;;;;;;-144.57;100.00;62443.72;5071182;28;20051;-67
2023/04/16 08:13:25;;;;;;;11.60;6.25;;;;;;;-144.57;100.00;62443.72;5053531;28;20036;-67
2023/04/16 08:15:51;;;;;;;10.07;5.82;;;;;;;-144.57;100.00;62443.72;5071400;28;20135;-65
2023/04/16 08:18:18;;;;;;;14.68;5.10;;;;;;;-144.57;100.00;62443.72;5069980;28;20123;-65
2023/04/16 08:20:44;;;;;;;8.93;4.85;;;;;;;-144.57;100.00;62443.72;5070264;28;20047;-67
2023/04/16 08:23:09;;;;;;;10.32;4.93;;;;;;;-144.57;100.00;62443.72;5070313;28;20052;-66
2023/04/16 08:25:35;;;;;;;14.73;4.78;;;;;;;-144.57;100.00;62443.72;5070874;28;20036;-65
2023/04/16 08:28:01;;;;;;;8.68;5.20;;;;;;;-144.57;100.00;62443.72;5071839;28;20490;-64
2023/04/16 08:30:27;;;;;;;13.23;4.65;;;;;;;-144.57;100.00;62443.72;5052746;28;20044;-66
2023/04/16 08:32:53;;;;;;;8.38;5.00;;;;;;;-144.57;100.00;62443.72;5070185;28;20211;-65
2023/04/16 08:35:19;;;;;;;9.43;5.05;;;;;;;-144.57;100.00;62443.72;5071278;28;20147;-65
2023/04/16 08:37:45;;;;;;;8.60;4.80;;;;;;;-144.57;100.00;62443.72;5071542;28;20527;-67
2023/04/16 08:40:11;;;;;;;9.60;4.68;;;;;;;-144.57;100.00;62443.72;5071053;28;20052;-66
2023/04/16 08:42:45;;;;;;;9.52;4.18;;;;;;;-144.57;100.00;62443.72;5070028;28;20402;-67
2023/04/16 08:45:15;;;;;;;9.82;4.95;;;;;;;-144.57;100.00;62443.72;5071203;28;20521;-67
2023/04/16 08:47:45;;;;;;;12.75;4.65;;;;;;;-144.57;100.00;62443.72;5037210;28;20058;-66
2023/04/16 08:50:16;;;;;;;9.13;5.10;;;;;;;-144.57;100.00;62443.72;5053201;28;20139;-67
2023/04/16 08:52:50;;;;;;;11.77;4.75;;;;;;;-144.57;100.00;62443.72;5070869;28;20044;-67
2023/04/16 08:55:18;;;;;;;13.80;4.68;;;;;;;-144.57;100.00;62443.72;5069967;28;20052;-66
2023/04/16 08:57:48;;;;;;;10.27;4.75;;;;;;;-144.57;100.00;62443.72;5053318;28;20090;-66
2023/04/16 09:00:15;;;;;;;13.00;5.10;;;;;;;-144.57;100.00;62443.72;5053255;28;20039;-67
2023/04/16 09:02:42;;;;;;;14.68;4.93;;;;;;;-144.57;100.00;62443.72;5070081;28;20048;-66
2023/04/16 09:05:15;;;;;;;7.05;4.43;;;;;;;-144.57;100.00;62443.72;5069403;28;20056;-66
2023/04/16 09:07:46;;;;;;;9.32;4.47;;;;;;;-144.57;100.00;62443.72;5071205;28;20059;-67
2023/04/16 09:10:13;;;;;;;8.23;4.45;;;;;;;-144.57;100.00;62443.72;5053237;28;20056;-66
2023/04/16 09:12:41;;;;;;;12.68;4.75;;;;;;;-144.57;100.00;62443.72;5071188;28;20052;-66
2023/04/16 09:15:09;;;;;;;12.50;4.93;;;;;;;-144.57;100.00;62443.72;5070796;28;20051;-66
2023/04/16 09:17:35;;;;;;;9.77;4.45;;;;;;;-144.57;100.00;62443.72;5071376;28;20049;-66
2023/04/16 09:20:04;;;;;;;10.18;4.35;;;;;;;-144.57;100.00;62443.72;5069481;28;20058;-67
2023/04/16 09:22:31;;;;;;;11.45;4.43;;;;;;;-144.57;100.00;62443.72;5069582;28;20047;-65
2023/04/16 09:24:56;;;;;;;9.25;4.38;;;;;;;-144.57;100.00;62443.72;5069626;28;20506;-66
2023/04/16 09:27:24;;;;;;;9.60;4.20;;;;;;;-144.57;100.00;62443.72;5071048;28;20052;-65
2023/04/16 09:29:50;;;;;;;10.05;4.40;;;;;;;-144.57;100.00;62443.72;5069583;28;20037;-66
2023/04/16 09:32:16;;;;;;;8.93;4.50;;;;;;;-144.57;100.00;62443.72;5071119;28;20541;-66
2023/04/16 09:34:59;;;;;;;12.85;4.40;;;;;;;-144.57;100.00;62443.72;5052873;28;20048;-64
2023/04/16 09:37:29;;;;;;;10.18;3.90;;;;;;;-144.57;100.00;62443.72;5071919;28;20471;-66
2023/04/16 09:39:58;;;;;;;9.77;4.03;;;;;;;-144.57;100.00;62443.72;5072908;28;20127;-66
2023/04/16 09:42:29;;;;;;;9.73;4.15;;;;;;;-144.57;100.00;62443.72;5056315;28;20451;-66
2023/04/16 09:44:56;;;;;;;8.85;4.68;;;;;;;-144.57;100.00;62443.72;5056458;28;20413;-66
2023/04/16 09:47:25;;;;;;;11.05;4.45;;;;;;;-144.57;100.00;62443.72;5073175;28;20045;-66
2023/04/16 09:49:51;;;;;;;9.25;4.43;;;;;;;-144.57;100.00;62443.72;5073933;28;20123;-66
2023/04/16 09:52:22;;;;;;;14.85;4.43;;;;;;;-144.57;100.00;62443.72;5074371;28;20137;-66
2023/04/16 09:54:52;;;;;;;13.40;4.28;;;;;;;-144.57;100.00;62443.72;5072501;28;20355;-66
2023/04/16 09:57:20;;;;;;;7.68;4.05;;;;;;;-144.57;100.00;62443.72;5074373;28;20044;-67
2023/04/16 09:59:48;;;;;;;9.85;4.55;;;;;;;-144.57;100.00;62443.72;5073900;28;20044;-66
2023/04/16 10:02:13;;;;;;;8.75;4.20;;;;;;;-144.57;100.00;62443.72;5056415;28;20052;-66
2023/04/16 10:04:50;;;;;;;8.88;4.50;;;;;;;-144.57;100.00;62443.72;5072765;28;20498;-66
2023/04/16 10:07:17;;;;;;;10.52;4.80;;;;;;;-144.57;100.00;62443.72;5074105;28;20044;-66
2023/04/16 10:09:43;;;;;;;6.15;4.25;;;;;;;-144.57;100.00;62443.72;5073577;28;20054;-67
2023/04/16 10:12:09;;;;;;;14.35;4.55;;;;;;;-144.57;100.00;62443.72;5073721;28;20048;-66
2023/04/16 10:14:35;;;;;;;12.18;3.80;;;;;;;-144.57;100.00;62443.72;5073768;28;20032;-65
2023/04/16 10:17:02;;;;;;;9.63;3.85;;;;;;;-144.57;100.00;62443.72;5072272;28;20067;-67
2023/04/16 10:19:30;;;;;;;7.05;4.18;;;;;;;-144.57;100.00;62443.72;5073913;28;20043;-67
2023/04/16 10:21:57;;;;;;;8.98;5.32;;;;;;;-144.57;100.00;62443.72;5073660;28;20064;-66
2023/04/16 10:24:24;;;;;;;6.65;4.00;;;;;;;-144.57;100.00;62443.72;5072355;28;20048;-69
2023/04/16 10:26:51;;;;;;;5.60;3.80;;;;;;;-144.57;100.00;62443.72;5055428;28;20502;-67
2023/04/16 10:29:18;;;;;;;10.40;4.10;;;;;;;-144.57;100.00;62443.72;5072450;28;20044;-67
2023/04/16 10:31:44;;;;;;;8.75;4.00;;;;;;;-144.57;100.00;62443.72;5055476;28;20532;-67
2023/04/16 10:34:10;;;;;;;11.55;3.72;;;;;;;-144.57;100.00;62443.72;5055509;28;20040;-68
2023/04/16 10:36:36;;;;;;;7.75;3.88;;;;;;;-144.57;100.00;62443.72;5072076;28;20041;-67
2023/04/16 10:39:03;;;;;;;11.65;4.28;;;;;;;-144.57;100.00;62443.72;5072306;28;20041;-68
2023/04/16 10:41:31;;;;;;;8.18;5.40;;;;;;;-144.57;100.00;62443.72;5038387;28;20448;-67
2023/04/16 10:44:08;;;;;;;14.45;9.13;;;;;;;-144.57;100.00;62443.72;5055228;28;20418;-67
2023/04/16 10:46:42;;;;;;;21.92;11.65;;;;;;;-144.57;100.00;62443.72;5072843;28;20131;-66
2023/04/16 10:49:23;;;;;;;18.90;10.73;;;;;;;-144.57;100.00;62443.72;5073122;28;20049;-68
2023/04/16 10:51:57;;;;;;;22.60;12.55;;;;;;;-144.57;100.00;62443.72;5073373;28;20577;-65
2023/04/16 10:54:25;;;;;;;19.23;11.10;;;;;;;-144.57;100.00;62443.72;5073003;28;20052;-67
2023/04/16 10:56:52;;;;;;;11.43;5.47;;;;;;;-144.57;100.00;62443.72;5072733;28;20048;-66
2023/04/16 10:59:20;;;;;;;10.40;4.68;;;;;;;-144.57;100.00;62443.72;5071613;28;20042;-68
2023/04/16 11:01:54;;;;;;;12.35;4.25;;;;;;;-144.57;100.00;62443.72;5073178;28;20090;-67